createdAt,value
2018-04-11T05:20:41.512Z,95.00
2018-04-11T05:23:13.719Z,95.00
2018-04-11T05:25:45.599Z,95.40
2018-04-11T05:28:17.746Z,95.60
2018-04-11T05:30:49.626Z,95.80
2018-04-11T05:33:21.511Z,95.80
2018-04-11T05:35:53.388Z,95.50
2018-04-11T05:38:25.286Z,95.30
2018-04-11T05:40:57.164Z,95.60
2018-04-11T05:43:29.059Z,95.70
2018-04-11T05:46:00.935Z,95.70
2018-04-11T05:48:32.814Z,95.70
2018-04-11T05:51:05.450Z,96.10
2018-04-11T05:53:37.335Z,96.10
2018-04-11T05:56:09.529Z,96.10
2018-04-11T05:58:41.411Z,96.30
2018-04-11T06:01:13.298Z,96.00
2018-04-11T06:03:45.182Z,96.30
2018-04-11T06:06:17.067Z,96.20
2018-04-11T06:08:48.960Z,96.20
2018-04-11T06:11:20.833Z,96.40
2018-04-11T06:13:52.725Z,96.40
2018-04-11T06:16:24.591Z,96.50
2018-04-11T06:18:57.245Z,96.20
2018-04-11T06:21:29.125Z,96.20
2018-04-11T06:24:01.780Z,96.30
2018-04-11T06:26:33.662Z,96.30
2018-04-11T06:29:06.317Z,96.40
2018-04-11T06:31:38.958Z,96.30
2018-04-11T06:34:10.849Z,96.30
2018-04-11T06:36:42.723Z,96.30
2018-04-11T06:39:14.611Z,96.40
2018-04-11T06:41:47.249Z,96.20
2018-04-11T06:44:19.151Z,96.20
2018-04-11T06:46:51.837Z,96.00
2018-04-11T06:49:24.482Z,96.30
2018-04-11T06:51:56.359Z,96.30
2018-04-11T06:54:29.019Z,96.50
2018-04-11T06:57:00.899Z,96.50
2018-04-11T06:59:33.567Z,96.10
2018-04-11T07:02:05.458Z,96.10
2018-04-11T07:04:37.345Z,96.30
2018-04-11T07:07:09.231Z,96.20
2018-04-11T07:09:41.137Z,95.90
2018-04-11T07:12:13.014Z,95.90
2018-04-11T07:14:44.916Z,95.90
2018-04-11T07:17:16.786Z,96.00
2018-04-11T07:19:48.894Z,95.90
2018-04-11T07:22:20.990Z,95.70
2018-04-11T07:24:52.878Z,95.30
2018-04-11T07:27:24.754Z,95.90
2018-04-11T07:29:57.401Z,95.80
2018-04-11T07:32:29.284Z,95.80
2018-04-11T07:35:01.979Z,95.60
2018-04-11T07:37:34.623Z,95.60
2018-04-11T07:40:06.553Z,95.60
2018-04-11T07:42:38.387Z,95.60
2018-04-11T07:45:10.275Z,95.80
2018-04-11T07:47:42.406Z,95.80
2018-04-11T07:50:14.311Z,95.90
2018-04-11T07:52:46.237Z,95.90
2018-04-11T07:55:18.130Z,96.00
2018-04-11T07:57:49.997Z,96.00
2018-04-11T08:00:22.113Z,96.00
2018-04-11T08:02:53.994Z,96.00
2018-04-11T08:05:25.884Z,96.10
2018-04-11T08:07:57.775Z,96.20
2018-04-11T08:10:31.114Z,96.20
2018-04-11T08:13:03.001Z,96.10
2018-04-11T08:15:34.886Z,95.90
2018-04-11T08:18:07.535Z,96.20
2018-04-11T08:20:39.429Z,96.20
2018-04-11T08:23:12.072Z,96.60
2018-04-11T08:25:43.963Z,96.60
2018-04-11T08:28:16.610Z,96.50
2018-04-11T08:30:48.494Z,96.50
2018-04-11T08:33:20.366Z,96.10
2018-04-11T08:35:53.022Z,96.20
2018-04-11T08:38:24.894Z,96.40
2018-04-11T08:40:56.781Z,96.20
2018-04-11T08:43:28.670Z,96.10
2018-04-11T08:46:00.556Z,96.00
2018-04-11T08:48:32.770Z,96.20
2018-04-11T08:51:04.662Z,96.30
2018-04-11T08:53:36.795Z,96.40
2018-04-11T08:56:08.685Z,96.40
2018-04-11T08:58:40.819Z,96.00
2018-04-11T09:01:12.987Z,96.00
2018-04-11T09:03:45.706Z,96.00
2018-04-11T09:06:17.598Z,95.80
2018-04-11T09:08:49.470Z,95.80
2018-04-11T09:11:22.123Z,95.10
2018-04-11T09:13:53.990Z,95.00
2018-04-11T09:16:25.867Z,94.90
2018-04-11T09:18:58.769Z,95.20
2018-04-11T09:21:30.656Z,95.20
2018-04-11T09:24:02.793Z,95.10
2018-04-11T09:26:34.686Z,95.10
2018-04-11T09:29:06.823Z,95.10
2018-04-11T09:31:38.992Z,95.10
2018-04-11T09:34:11.152Z,95.20
2018-04-11T09:36:43.037Z,95.30
2018-04-11T09:39:14.910Z,95.20
2018-04-11T09:41:46.803Z,95.20
2018-04-11T09:44:18.676Z,95.40
2018-04-11T09:46:51.584Z,94.80
2018-04-11T09:49:23.459Z,94.80
2018-04-11T09:51:55.355Z,94.60
2018-04-11T09:54:27.245Z,94.00
2018-04-11T09:56:59.905Z,94.20
2018-04-11T09:59:31.793Z,94.20
2018-04-11T10:02:05.246Z,94.20
2018-04-11T10:04:37.358Z,94.20
2018-04-11T10:07:09.249Z,93.90
2018-04-11T10:09:41.122Z,94.40
2018-04-11T10:12:13.015Z,94.50
2018-04-11T10:14:44.882Z,94.70
2018-04-11T10:17:17.537Z,94.60
2018-04-11T10:19:49.642Z,94.60
2018-04-11T10:22:21.550Z,94.60
2018-04-11T10:24:54.207Z,94.80
2018-04-11T10:27:26.090Z,94.80
2018-04-11T10:29:57.974Z,94.90
2018-04-11T10:32:29.861Z,95.20
2018-04-11T10:35:01.775Z,95.50
2018-04-11T10:37:33.674Z,95.00
2018-04-11T10:40:06.318Z,94.80
2018-04-11T10:42:38.530Z,94.80
2018-04-11T10:45:10.419Z,94.70
2018-04-11T10:47:42.553Z,94.90
2018-04-11T10:50:14.433Z,95.10
2018-04-11T10:52:46.332Z,95.20
2018-04-11T10:55:18.954Z,94.70
2018-04-11T10:57:50.846Z,94.70
2018-04-11T11:00:22.731Z,94.80
2018-04-11T11:02:54.945Z,94.80
2018-04-11T11:05:26.813Z,94.60
2018-04-11T11:07:58.712Z,94.70
2018-04-11T11:10:30.587Z,94.80
2018-04-11T11:13:02.496Z,95.00
2018-04-11T11:15:34.375Z,94.90
2018-04-11T11:18:06.262Z,95.00
2018-04-11T11:20:38.143Z,94.90
2018-04-11T11:23:11.047Z,94.90
2018-04-11T11:25:42.937Z,94.80
2018-04-11T11:28:14.884Z,94.70
2018-04-11T11:30:46.724Z,94.60
2018-04-11T11:33:19.619Z,94.70
2018-04-11T11:35:51.783Z,94.70
2018-04-11T11:38:23.675Z,94.60
2018-04-11T11:40:55.599Z,94.80
2018-04-11T11:43:28.289Z,94.20
2018-04-11T11:46:00.177Z,94.10
2018-04-11T11:48:32.056Z,94.40
2018-04-11T11:51:04.169Z,93.80
2018-04-11T11:53:36.050Z,93.50
2018-04-11T11:56:07.930Z,93.30
2018-04-11T11:58:40.056Z,93.00
2018-04-11T12:01:11.942Z,93.50
2018-04-11T12:03:43.833Z,92.80
2018-04-11T12:06:15.943Z,93.20
2018-04-11T12:08:47.897Z,92.70
2018-04-11T12:11:20.531Z,92.00
2018-04-11T12:13:52.747Z,91.90
2018-04-11T12:16:24.622Z,92.00
2018-04-11T12:18:56.510Z,91.80
2018-04-11T12:21:28.629Z,92.10
2018-04-11T12:24:00.518Z,92.50
2018-04-11T12:26:32.394Z,92.40
2018-04-11T12:29:04.286Z,92.30
2018-04-11T12:31:36.162Z,91.50
2018-04-11T12:34:08.823Z,92.30
2018-04-11T12:36:40.698Z,92.30
2018-04-11T12:39:13.346Z,92.40
2018-04-11T12:41:45.455Z,92.30
2018-04-11T12:44:17.618Z,92.80
2018-04-11T12:46:49.490Z,92.80
2018-04-11T12:49:21.381Z,92.70
2018-04-11T12:51:53.249Z,92.70
2018-04-11T12:54:25.140Z,92.90
2018-04-11T12:56:58.045Z,93.20
2018-04-11T12:59:29.934Z,93.20
2018-04-11T13:02:01.811Z,93.00
2018-04-11T13:04:33.704Z,92.40
2018-04-11T13:07:06.341Z,93.00
2018-04-11T13:09:38.228Z,92.80
2018-04-11T13:12:10.098Z,92.60
2018-04-11T13:14:42.749Z,93.10
2018-04-11T13:17:14.630Z,92.80
2018-04-11T13:19:46.830Z,93.00
2018-04-11T13:22:18.716Z,92.80
2018-04-11T13:24:50.603Z,93.10
2018-04-11T13:27:22.479Z,92.80
2018-04-11T13:29:54.387Z,93.00
2018-04-11T13:32:26.269Z,93.20
2018-04-11T13:34:58.393Z,93.60
2018-04-11T13:37:30.562Z,93.40
2018-04-11T13:40:02.451Z,92.80
2018-04-11T13:42:34.358Z,92.70
2018-04-11T13:45:07.026Z,92.30
2018-04-11T13:47:39.229Z,92.30
2018-04-11T13:50:11.138Z,92.10
2018-04-11T13:52:43.272Z,92.50
2018-04-11T13:55:15.216Z,92.60
2018-04-11T13:57:48.069Z,92.10
2018-04-11T14:00:19.951Z,92.00
2018-04-11T14:02:52.595Z,92.50
2018-04-11T14:05:24.495Z,92.50
2018-04-11T14:07:57.138Z,91.90
2018-04-11T14:10:29.022Z,91.90
2018-04-11T14:13:01.662Z,91.60
2018-04-11T14:15:33.779Z,91.60
2018-04-11T14:18:05.659Z,91.40
2018-04-11T14:20:37.805Z,91.20
2018-04-11T14:23:09.687Z,91.20
2018-04-11T14:25:41.834Z,91.50
2018-04-11T14:28:13.714Z,91.50
2018-04-11T14:30:45.866Z,91.60
2018-04-11T14:33:17.746Z,91.70
2018-04-11T14:35:49.630Z,91.80
2018-04-11T14:38:21.754Z,92.50
2018-04-11T14:40:53.912Z,92.00
2018-04-11T14:43:25.782Z,91.70
2018-04-11T14:45:57.938Z,91.60
2018-04-11T14:48:29.818Z,91.40
2018-04-11T14:51:01.705Z,91.20
2018-04-11T14:53:33.620Z,91.00
2018-04-11T14:56:06.504Z,90.50
2018-04-11T14:58:38.377Z,90.50
2018-04-11T15:01:10.272Z,90.10
2018-04-11T15:03:42.185Z,88.30
2018-04-11T15:06:14.046Z,89.50
2018-04-11T15:08:45.931Z,89.00
2018-04-11T15:11:18.069Z,89.10
2018-04-11T15:13:49.954Z,89.60
2018-04-11T15:16:22.093Z,89.20
2018-04-11T15:18:54.054Z,89.50
2018-04-11T15:21:25.948Z,90.00
2018-04-11T15:23:57.826Z,89.40
2018-04-11T15:26:29.709Z,90.10
2018-04-11T15:29:01.586Z,89.30
2018-04-11T15:31:34.234Z,89.70
2018-04-11T15:34:06.339Z,89.70
2018-04-11T15:36:39.001Z,88.40
2018-04-11T15:39:11.638Z,88.00
2018-04-11T15:41:43.535Z,88.00
2018-04-11T15:44:15.553Z,86.50
2018-04-11T15:46:47.473Z,87.00
2018-04-11T15:49:20.115Z,87.90
2018-04-11T15:51:52.005Z,87.80
2018-04-11T15:54:24.651Z,86.30
2018-04-11T15:56:56.537Z,86.30
2018-04-11T15:59:29.191Z,88.60
2018-04-11T16:02:01.078Z,88.60
2018-04-11T16:04:33.719Z,88.70
2018-04-11T16:07:05.610Z,88.70
2018-04-11T16:09:37.496Z,89.60
2018-04-11T16:12:09.383Z,89.20
2018-04-11T16:14:41.359Z,89.50
2018-04-11T16:17:13.326Z,90.00
2018-04-11T16:19:45.202Z,90.20
2018-04-11T16:22:17.090Z,90.00
2018-04-11T16:24:49.825Z,89.80
2018-04-11T16:27:21.946Z,89.70
2018-04-11T16:29:54.111Z,90.20
2018-04-11T16:32:26.010Z,90.40
2018-04-11T16:34:57.884Z,90.40
2018-04-11T16:37:29.766Z,90.70
2018-04-11T16:40:01.752Z,90.60
2018-04-11T16:42:34.411Z,90.60
2018-04-11T16:45:07.082Z,90.80
2018-04-11T16:47:38.962Z,90.80
2018-04-11T16:50:11.599Z,90.70
2018-04-11T16:52:43.619Z,90.70
2018-04-11T16:55:15.502Z,90.60
2018-04-11T16:57:47.407Z,90.30
2018-04-11T17:00:19.283Z,90.20
2018-04-11T17:02:51.931Z,89.90
2018-04-11T17:05:23.873Z,89.80
2018-04-11T17:07:55.762Z,89.60
2018-04-11T17:10:27.629Z,89.50
2018-04-11T17:12:59.510Z,89.20
2018-04-11T17:15:31.430Z,89.20
2018-04-11T17:18:03.335Z,89.40
2018-04-11T17:20:47.797Z,90.10
2018-04-11T17:23:31.603Z,90.10
2018-04-11T17:26:15.464Z,90.30
2018-04-11T17:29:00.334Z,90.70
2018-04-11T17:31:32.207Z,90.70
2018-04-11T17:34:04.087Z,90.80
2018-04-11T17:36:35.954Z,90.90
2018-04-11T17:39:08.078Z,91.10
2018-04-11T17:41:39.954Z,91.10
2018-04-11T17:44:11.834Z,91.30
2018-04-11T17:46:43.725Z,91.30
2018-04-11T17:49:15.607Z,91.40
2018-04-11T17:51:48.505Z,91.70
2018-04-11T17:54:20.395Z,91.60
2018-04-11T17:56:52.262Z,91.60
2018-04-11T17:59:24.143Z,91.50
2018-04-11T18:01:56.014Z,91.50
2018-04-11T18:04:27.898Z,91.70
2018-04-11T18:07:00.787Z,91.80
2018-04-11T18:09:32.679Z,91.80
2018-04-11T18:12:04.617Z,91.90
2018-04-11T18:14:37.214Z,91.90
2018-04-11T18:17:09.083Z,92.00
2018-04-11T18:19:40.978Z,92.20
2018-04-11T18:22:13.069Z,92.20
2018-04-11T18:24:44.967Z,92.30
2018-04-11T18:27:16.834Z,92.40
2018-04-11T18:29:49.488Z,92.70
2018-04-11T18:32:21.374Z,92.60
2018-04-11T18:34:53.271Z,92.80
2018-04-11T18:37:25.911Z,93.00
2018-04-11T18:39:57.796Z,93.00
2018-04-11T18:42:29.889Z,93.20
2018-04-11T18:45:01.781Z,93.20
2018-04-11T18:47:33.662Z,93.40
2018-04-11T18:50:06.315Z,93.50
2018-04-11T18:52:38.186Z,93.60
2018-04-11T18:55:10.317Z,93.70
2018-04-11T18:57:42.185Z,93.80
2018-04-11T19:00:14.072Z,93.90
2018-04-11T19:02:45.943Z,94.00
2018-04-11T19:05:17.821Z,94.00
2018-04-11T19:07:49.698Z,94.10
2018-04-11T19:10:22.351Z,94.20
2018-04-11T19:12:54.457Z,94.20
2018-04-11T19:15:26.626Z,94.20
2018-04-11T19:17:58.499Z,94.30
2018-04-11T19:20:30.396Z,94.30
2018-04-11T19:23:02.269Z,94.30
2018-04-11T19:25:34.151Z,94.50
2018-04-11T19:28:06.786Z,94.70
2018-04-11T19:30:38.670Z,94.60
2018-04-11T19:33:10.538Z,94.50
2018-04-11T19:35:42.426Z,94.60
2018-04-11T19:38:14.307Z,94.40
2018-04-11T19:40:46.191Z,94.60
2018-04-11T19:43:18.830Z,94.90
2018-04-11T19:45:50.935Z,94.90
2018-04-11T19:48:22.806Z,94.80
2018-04-11T19:50:54.705Z,94.80
2018-04-11T19:53:27.353Z,95.10
